Agnew, Nebraska
Current Conditions -  °F | °C
As of 12:54 PM on Saturday 27 Dec 2014 (Local Time) from KLNK Reporting Station
Clear Clear  
Wind Chill: 16°   Ceiling: Unl
Heat Index: 26°   Visibility: 10mi
Dew Point: 16°   Wind: 10mph
Humidity: 66%   Direction: 320°NW
Pressure: 30.26"   Gusts: NA
Location:  40.9964°N, 96.8004°W
Report Text: KLNK 271854Z 32009KT 10SM CLR M03/M09 A3026 RMK AO2 SLP263 T10331089
Loading
Personal Weather Stations






























Interactive Weather Map New forecast layout! Learn more

10-Day Weather Forecast

Advertisements
Track Severe Weather on mobile